HUN142 LEPA-LHBP
Flight info
| Callsign | HUN142 |
|---|---|
| Flight time | 2h 8m |
| Altitude | 38000 |
| Route | MORSS DCT ELSAG DCT ALG DCT ROMPO DCT GISPA DCT KATAR DCT IBENI DCT KOPRY/N0445F370 DCT ULZAK |
| Aircraft | B738/M-SDE2E3FGHIJ2J5RWXY/LB1 |
Departure
| Time | 2026-05-04 14:12 |
|---|---|
| Airport | Palma de Mallorca Airport (LEPA) |
Arrival
| Time | 2026-05-04 16:20 |
|---|---|
| Airport | Budapest Liszt Ferenc International Airport (LHBP) |
| Time | Latitude | Longitude | Altitude | Speed | Heading |
|---|---|---|---|---|---|
| 2026-05-04 13:37 | 39.54478 | 2.73178 | 27 ft | 0 kts | 345° |
| 2026-05-04 13:55 | 39.54468 | 2.73182 | 29 ft | 3 kts | 345° |
| 2026-05-04 13:55 | 39.54452 | 2.73188 | 29 ft | 3 kts | 347° |
| 2026-05-04 13:56 | 39.54435 | 2.73189 | 29 ft | 3 kts | 34° |
| 2026-05-04 13:56 | 39.54426 | 2.73179 | 29 ft | 3 kts | 57° |
| 2026-05-04 13:56 | 39.54413 | 2.73150 | 29 ft | 1 kts | 58° |
| 2026-05-04 14:00 | 39.54438 | 2.73203 | 29 ft | 7 kts | 58° |
| 2026-05-04 14:00 | 39.54466 | 2.73262 | 29 ft | 8 kts | 58° |
| 2026-05-04 14:01 | 39.54490 | 2.73314 | 29 ft | 6 kts | 58° |
| 2026-05-04 14:01 | 39.54513 | 2.73362 | 29 ft | 6 kts | 58° |
| 2026-05-04 14:01 | 39.54557 | 2.73456 | 29 ft | 6 kts | 58° |
| 2026-05-04 14:02 | 39.54579 | 2.73501 | 29 ft | 6 kts | 58° |
| 2026-05-04 14:02 | 39.54602 | 2.73544 | 29 ft | 6 kts | 53° |
| 2026-05-04 14:02 | 39.54616 | 2.73592 | 29 ft | 6 kts | 89° |
| 2026-05-04 14:02 | 39.54598 | 2.73638 | 29 ft | 6 kts | 125° |
| 2026-05-04 14:03 | 39.54587 | 2.73686 | 29 ft | 6 kts | 86° |
| 2026-05-04 14:03 | 39.54607 | 2.73739 | 29 ft | 8 kts | 58° |
| 2026-05-04 14:03 | 39.54638 | 2.73805 | 29 ft | 9 kts | 59° |
| 2026-05-04 14:03 | 39.54670 | 2.73872 | 29 ft | 9 kts | 58° |
| 2026-05-04 14:04 | 39.54756 | 2.74054 | 29 ft | 13 kts | 58° |
| 2026-05-04 14:04 | 39.54820 | 2.74124 | 29 ft | 13 kts | 356° |
| 2026-05-04 14:04 | 39.54897 | 2.74073 | 29 ft | 12 kts | 329° |
| 2026-05-04 14:05 | 39.55040 | 2.73960 | 29 ft | 12 kts | 329° |
| 2026-05-04 14:05 | 39.55109 | 2.73906 | 29 ft | 11 kts | 328° |
| 2026-05-04 14:05 | 39.55176 | 2.73853 | 29 ft | 11 kts | 329° |
| 2026-05-04 14:06 | 39.55241 | 2.73802 | 29 ft | 11 kts | 329° |
| 2026-05-04 14:06 | 39.55305 | 2.73752 | 29 ft | 11 kts | 329° |
| 2026-05-04 14:06 | 39.55367 | 2.73703 | 29 ft | 11 kts | 328° |
| 2026-05-04 14:06 | 39.55429 | 2.73654 | 29 ft | 10 kts | 328° |
| 2026-05-04 14:07 | 39.55489 | 2.73606 | 29 ft | 10 kts | 328° |
| 2026-05-04 14:07 | 39.55548 | 2.73560 | 48 ft | 10 kts | 329° |
| 2026-05-04 14:07 | 39.55604 | 2.73516 | 29 ft | 9 kts | 329° |
| 2026-05-04 14:07 | 39.55663 | 2.73524 | 29 ft | 9 kts | 41° |
| 2026-05-04 14:08 | 39.55699 | 2.73592 | 29 ft | 9 kts | 58° |
| 2026-05-04 14:08 | 39.55733 | 2.73663 | 29 ft | 10 kts | 58° |
| 2026-05-04 14:08 | 39.55777 | 2.73756 | 29 ft | 14 kts | 58° |
| 2026-05-04 14:08 | 39.55835 | 2.73880 | 29 ft | 17 kts | 58° |
| 2026-05-04 14:09 | 39.55954 | 2.74130 | 29 ft | 16 kts | 58° |
| 2026-05-04 14:09 | 39.56009 | 2.74249 | 29 ft | 15 kts | 58° |
| 2026-05-04 14:10 | 39.56123 | 2.74449 | 29 ft | 13 kts | 25° |
| 2026-05-04 14:10 | 39.56206 | 2.74420 | 29 ft | 13 kts | 328° |
| 2026-05-04 14:10 | 39.56252 | 2.74332 | 29 ft | 13 kts | 264° |
| 2026-05-04 14:10 | 39.56216 | 2.74234 | 29 ft | 12 kts | 238° |
| 2026-05-04 14:11 | 39.56173 | 2.74143 | 29 ft | 12 kts | 238° |
| 2026-05-04 14:11 | 39.55763 | 2.73277 | 29 ft | 122 kts | 238° |
| 2026-05-04 14:11 | 39.55209 | 2.72125 | 78 ft | 173 kts | 237° |
| 2026-05-04 14:12 | 39.54556 | 2.70702 | 708 ft | 188 kts | 239° |
| 2026-05-04 14:12 | 39.53863 | 2.69261 | 1565 ft | 188 kts | 236° |
| 2026-05-04 14:12 | 39.52385 | 2.66359 | 2689 ft | 210 kts | 236° |
| 2026-05-04 14:13 | 39.51609 | 2.64788 | 3454 ft | 204 kts | 237° |
| 2026-05-04 14:13 | 39.50845 | 2.63224 | 4130 ft | 203 kts | 236° |
| 2026-05-04 14:13 | 39.50081 | 2.61677 | 4740 ft | 208 kts | 234° |
| 2026-05-04 14:13 | 39.48949 | 2.60442 | 5029 ft | 224 kts | 207° |
| 2026-05-04 14:14 | 39.47519 | 2.59514 | 5466 ft | 238 kts | 210° |
| 2026-05-04 14:14 | 39.44494 | 2.57271 | 6730 ft | 254 kts | 211° |
| 2026-05-04 14:14 | 39.42867 | 2.56351 | 7444 ft | 261 kts | 192° |
| 2026-05-04 14:15 | 39.39387 | 2.57833 | 8903 ft | 285 kts | 141° |
| 2026-05-04 14:15 | 39.37401 | 2.62464 | 10251 ft | 304 kts | 118° |
| 2026-05-04 14:16 | 39.37374 | 2.68245 | 10609 ft | 361 kts | 68° |
| 2026-05-04 14:16 | 39.38518 | 2.71235 | 10873 ft | 379 kts | 62° |
| 2026-05-04 14:17 | 39.41093 | 2.77296 | 12116 ft | 388 kts | 63° |
| 2026-05-04 14:17 | 39.42309 | 2.80434 | 12798 ft | 391 kts | 65° |
| 2026-05-04 14:17 | 39.44579 | 2.86905 | 14141 ft | 399 kts | 67° |
| 2026-05-04 14:18 | 39.45674 | 2.90237 | 14679 ft | 404 kts | 68° |
| 2026-05-04 14:18 | 39.47837 | 2.97007 | 15747 ft | 414 kts | 68° |
| 2026-05-04 14:19 | 39.50041 | 3.03997 | 16824 ft | 422 kts | 68° |
| 2026-05-04 14:19 | 39.51157 | 3.07543 | 17344 ft | 427 kts | 68° |
| 2026-05-04 14:19 | 39.52272 | 3.11088 | 17825 ft | 432 kts | 68° |
| 2026-05-04 14:19 | 39.53414 | 3.14723 | 18333 ft | 437 kts | 67° |
| 2026-05-04 14:20 | 39.54563 | 3.18384 | 18790 ft | 440 kts | 68° |
| 2026-05-04 14:20 | 39.55722 | 3.22078 | 19241 ft | 445 kts | 68° |
| 2026-05-04 14:20 | 39.56891 | 3.25811 | 19684 ft | 449 kts | 68° |
| 2026-05-04 14:21 | 39.59257 | 3.33381 | 20540 ft | 457 kts | 68° |
| 2026-05-04 14:21 | 39.60453 | 3.37214 | 20968 ft | 461 kts | 68° |
| 2026-05-04 14:21 | 39.61662 | 3.41096 | 21386 ft | 464 kts | 68° |
| 2026-05-04 14:21 | 39.62862 | 3.44956 | 21784 ft | 468 kts | 69° |
| 2026-05-04 14:22 | 39.64088 | 3.48902 | 22193 ft | 472 kts | 69° |
| 2026-05-04 14:22 | 39.65320 | 3.52875 | 22597 ft | 475 kts | 69° |
| 2026-05-04 14:22 | 39.66559 | 3.56876 | 22977 ft | 479 kts | 69° |
| 2026-05-04 14:22 | 39.67807 | 3.60912 | 23362 ft | 483 kts | 69° |
| 2026-05-04 14:23 | 39.70314 | 3.69036 | 24019 ft | 489 kts | 69° |
| 2026-05-04 14:23 | 39.71581 | 3.73150 | 24372 ft | 491 kts | 69° |
| 2026-05-04 14:23 | 39.72854 | 3.77293 | 24717 ft | 493 kts | 69° |
| 2026-05-04 14:24 | 39.74113 | 3.81395 | 25026 ft | 496 kts | 69° |
| 2026-05-04 14:24 | 39.75399 | 3.85592 | 25344 ft | 499 kts | 70° |
| 2026-05-04 14:24 | 39.76687 | 3.89801 | 25663 ft | 501 kts | 70° |
| 2026-05-04 14:24 | 39.77980 | 3.94033 | 25981 ft | 504 kts | 70° |
| 2026-05-04 14:25 | 39.79264 | 3.98242 | 26271 ft | 506 kts | 70° |
| 2026-05-04 14:25 | 39.81871 | 4.06808 | 26861 ft | 511 kts | 70° |
| 2026-05-04 14:25 | 39.83178 | 4.11116 | 27151 ft | 513 kts | 70° |
| 2026-05-04 14:26 | 39.84490 | 4.15443 | 27430 ft | 515 kts | 70° |
| 2026-05-04 14:26 | 39.85807 | 4.19791 | 27706 ft | 518 kts | 70° |
| 2026-05-04 14:26 | 39.87021 | 4.24152 | 27951 ft | 519 kts | 75° |
| 2026-05-04 14:26 | 39.87995 | 4.28680 | 28228 ft | 519 kts | 78° |
| 2026-05-04 14:27 | 39.88893 | 4.33242 | 28508 ft | 521 kts | 78° |
| 2026-05-04 14:27 | 39.89785 | 4.37833 | 28756 ft | 523 kts | 78° |
| 2026-05-04 14:27 | 39.90697 | 4.42444 | 29000 ft | 525 kts | 78° |
| 2026-05-04 14:27 | 39.91636 | 4.47076 | 29240 ft | 527 kts | 77° |
| 2026-05-04 14:28 | 39.92575 | 4.51636 | 29508 ft | 529 kts | 77° |
| 2026-05-04 14:28 | 39.93545 | 4.56325 | 29876 ft | 528 kts | 77° |
| 2026-05-04 14:28 | 39.94484 | 4.60872 | 30225 ft | 526 kts | 77° |
| 2026-05-04 14:28 | 39.95429 | 4.65473 | 30544 ft | 525 kts | 77° |
| 2026-05-04 14:29 | 39.97334 | 4.74647 | 31146 ft | 523 kts | 77° |
| 2026-05-04 14:29 | 39.99268 | 4.83785 | 31736 ft | 522 kts | 77° |
| 2026-05-04 14:30 | 40.00233 | 4.88352 | 32019 ft | 521 kts | 77° |
| 2026-05-04 14:30 | 40.01194 | 4.92918 | 32304 ft | 520 kts | 77° |
| 2026-05-04 14:30 | 40.03082 | 5.01949 | 32859 ft | 518 kts | 77° |
| 2026-05-04 14:31 | 40.04024 | 5.06478 | 33141 ft | 517 kts | 78° |
| 2026-05-04 14:31 | 40.05905 | 5.15554 | 33668 ft | 516 kts | 78° |
| 2026-05-04 14:32 | 40.07771 | 5.24595 | 34142 ft | 515 kts | 78° |
| 2026-05-04 14:32 | 40.08702 | 5.29120 | 34335 ft | 515 kts | 78° |
| 2026-05-04 14:32 | 40.09630 | 5.33639 | 34521 ft | 515 kts | 78° |
| 2026-05-04 14:32 | 40.10555 | 5.38152 | 34736 ft | 514 kts | 77° |
| 2026-05-04 14:33 | 40.11478 | 5.42669 | 34938 ft | 514 kts | 77° |
| 2026-05-04 14:33 | 40.12399 | 5.47180 | 35110 ft | 514 kts | 77° |
| 2026-05-04 14:33 | 40.13311 | 5.51663 | 35291 ft | 514 kts | 77° |
| 2026-05-04 14:33 | 40.14229 | 5.56183 | 35478 ft | 513 kts | 77° |
| 2026-05-04 14:34 | 40.15138 | 5.60664 | 35681 ft | 513 kts | 77° |
| 2026-05-04 14:34 | 40.16054 | 5.65196 | 35860 ft | 513 kts | 77° |
| 2026-05-04 14:34 | 40.16965 | 5.69707 | 36026 ft | 513 kts | 77° |
| 2026-05-04 14:34 | 40.17871 | 5.74209 | 36201 ft | 512 kts | 77° |
| 2026-05-04 14:35 | 40.18778 | 5.78726 | 36377 ft | 512 kts | 77° |
| 2026-05-04 14:35 | 40.19681 | 5.83226 | 36544 ft | 512 kts | 77° |
| 2026-05-04 14:35 | 40.20571 | 5.87677 | 36693 ft | 512 kts | 77° |
| 2026-05-04 14:35 | 40.21472 | 5.92191 | 36854 ft | 511 kts | 77° |
| 2026-05-04 14:36 | 40.22368 | 5.96690 | 37044 ft | 510 kts | 77° |
| 2026-05-04 14:36 | 40.23258 | 6.01167 | 37268 ft | 508 kts | 77° |
| 2026-05-04 14:36 | 40.24147 | 6.05650 | 37497 ft | 506 kts | 77° |
| 2026-05-04 14:36 | 40.25029 | 6.10107 | 37652 ft | 506 kts | 77° |
| 2026-05-04 14:37 | 40.25915 | 6.14598 | 37695 ft | 508 kts | 77° |
| 2026-05-04 14:37 | 40.27675 | 6.23548 | 37796 ft | 512 kts | 77° |
| 2026-05-04 14:37 | 40.28563 | 6.28076 | 37920 ft | 511 kts | 77° |
| 2026-05-04 14:38 | 40.29447 | 6.32596 | 37984 ft | 512 kts | 77° |
| 2026-05-04 14:38 | 40.31219 | 6.41681 | 37987 ft | 515 kts | 77° |
| 2026-05-04 14:39 | 40.32991 | 6.50812 | 37988 ft | 518 kts | 77° |
| 2026-05-04 14:39 | 40.34765 | 6.59993 | 37984 ft | 520 kts | 77° |
| 2026-05-04 14:40 | 40.37422 | 6.73822 | 37983 ft | 522 kts | 76° |
| 2026-05-04 14:40 | 40.39185 | 6.83051 | 37987 ft | 521 kts | 76° |
| 2026-05-04 14:41 | 40.40928 | 6.92223 | 37985 ft | 519 kts | 76° |
| 2026-05-04 14:42 | 40.44101 | 7.09026 | 37990 ft | 515 kts | 76° |
| 2026-05-04 14:42 | 40.45813 | 7.18152 | 37988 ft | 513 kts | 76° |
| 2026-05-04 14:43 | 40.47508 | 7.27232 | 37998 ft | 511 kts | 76° |
| 2026-05-04 14:43 | 40.49190 | 7.36282 | 38000 ft | 509 kts | 76° |
| 2026-05-04 14:44 | 40.50849 | 7.45255 | 38000 ft | 508 kts | 76° |
| 2026-05-04 14:44 | 40.52510 | 7.54279 | 38008 ft | 507 kts | 76° |
| 2026-05-04 14:45 | 40.54165 | 7.63313 | 38012 ft | 507 kts | 76° |
| 2026-05-04 14:45 | 40.55804 | 7.72297 | 38009 ft | 508 kts | 76° |
| 2026-05-04 14:46 | 40.57448 | 7.81356 | 38014 ft | 509 kts | 76° |
| 2026-05-04 14:46 | 40.59077 | 7.90379 | 38023 ft | 510 kts | 76° |
| 2026-05-04 14:47 | 40.60710 | 7.99485 | 38029 ft | 511 kts | 77° |
| 2026-05-04 14:47 | 40.61626 | 8.08760 | 38048 ft | 511 kts | 86° |
| 2026-05-04 14:48 | 40.62285 | 8.18100 | 38054 ft | 513 kts | 84° |
| 2026-05-04 14:48 | 40.63604 | 8.27310 | 38040 ft | 512 kts | 68° |
| 2026-05-04 14:49 | 40.66361 | 8.35922 | 38050 ft | 510 kts | 64° |
| 2026-05-04 14:49 | 40.69162 | 8.44525 | 38047 ft | 510 kts | 65° |
| 2026-05-04 14:50 | 40.71882 | 8.53103 | 38035 ft | 510 kts | 65° |
| 2026-05-04 14:50 | 40.74585 | 8.61742 | 38040 ft | 509 kts | 65° |
| 2026-05-04 14:51 | 40.77279 | 8.70385 | 38033 ft | 508 kts | 65° |
| 2026-05-04 14:51 | 40.79961 | 8.79009 | 38034 ft | 507 kts | 65° |
| 2026-05-04 14:52 | 40.82632 | 8.87616 | 38032 ft | 506 kts | 65° |
| 2026-05-04 14:52 | 40.85270 | 8.96145 | 38046 ft | 504 kts | 65° |
| 2026-05-04 14:53 | 40.87919 | 9.04734 | 38033 ft | 503 kts | 65° |
| 2026-05-04 14:53 | 40.90556 | 9.13313 | 38040 ft | 503 kts | 65° |
| 2026-05-04 14:54 | 40.93172 | 9.21852 | 38048 ft | 503 kts | 65° |
| 2026-05-04 14:54 | 40.95796 | 9.30445 | 38048 ft | 503 kts | 65° |
| 2026-05-04 14:55 | 40.98416 | 9.39052 | 38052 ft | 504 kts | 65° |
| 2026-05-04 14:55 | 41.01015 | 9.47624 | 38054 ft | 505 kts | 66° |
| 2026-05-04 14:56 | 41.03630 | 9.56270 | 38059 ft | 505 kts | 65° |
| 2026-05-04 14:56 | 41.06239 | 9.64923 | 38047 ft | 506 kts | 65° |
| 2026-05-04 14:57 | 41.08831 | 9.73546 | 38054 ft | 506 kts | 65° |
| 2026-05-04 14:57 | 41.11875 | 9.81858 | 38074 ft | 500 kts | 54° |
| 2026-05-04 14:58 | 41.15546 | 9.89635 | 38068 ft | 500 kts | 53° |
| 2026-05-04 14:58 | 41.19246 | 9.97476 | 38044 ft | 501 kts | 54° |
| 2026-05-04 14:59 | 41.22893 | 10.05375 | 38062 ft | 500 kts | 54° |
| 2026-05-04 15:00 | 41.28286 | 10.17212 | 38065 ft | 499 kts | 54° |
| 2026-05-04 15:00 | 41.31872 | 10.25110 | 38071 ft | 498 kts | 54° |
| 2026-05-04 15:01 | 41.37209 | 10.36888 | 38078 ft | 495 kts | 54° |
| 2026-05-04 15:01 | 41.40753 | 10.44734 | 38075 ft | 494 kts | 54° |
| 2026-05-04 15:02 | 41.44284 | 10.52570 | 38083 ft | 492 kts | 54° |
| 2026-05-04 15:02 | 41.47802 | 10.60399 | 38084 ft | 491 kts | 54° |
| 2026-05-04 15:03 | 41.51304 | 10.68213 | 38086 ft | 489 kts | 54° |
| 2026-05-04 15:03 | 41.54788 | 10.76006 | 38082 ft | 488 kts | 54° |
| 2026-05-04 15:04 | 41.58260 | 10.83792 | 38094 ft | 487 kts | 54° |
| 2026-05-04 15:04 | 41.61611 | 10.91326 | 38087 ft | 486 kts | 54° |
| 2026-05-04 15:05 | 41.65056 | 10.99091 | 38107 ft | 485 kts | 54° |
| 2026-05-04 15:05 | 41.68458 | 11.06779 | 38104 ft | 485 kts | 54° |
| 2026-05-04 15:06 | 41.72437 | 11.14072 | 38111 ft | 471 kts | 37° |
| 2026-05-04 15:07 | 41.79862 | 11.22504 | 38096 ft | 468 kts | 34° |
| 2026-05-04 15:07 | 41.84818 | 11.28181 | 38114 ft | 469 kts | 34° |
| 2026-05-04 15:08 | 41.89763 | 11.33916 | 38110 ft | 469 kts | 35° |
| 2026-05-04 15:08 | 41.94706 | 11.39677 | 38122 ft | 470 kts | 35° |
| 2026-05-04 15:09 | 41.99647 | 11.45448 | 38123 ft | 471 kts | 34° |
| 2026-05-04 15:09 | 42.04597 | 11.51238 | 38128 ft | 471 kts | 35° |
| 2026-05-04 15:10 | 42.12003 | 11.59924 | 38130 ft | 471 kts | 35° |
| 2026-05-04 15:11 | 42.19425 | 11.68656 | 38132 ft | 471 kts | 34° |
| 2026-05-04 15:11 | 42.24360 | 11.74478 | 38139 ft | 470 kts | 34° |
| 2026-05-04 15:12 | 42.29293 | 11.80310 | 38138 ft | 470 kts | 34° |
| 2026-05-04 15:12 | 42.34207 | 11.86133 | 38130 ft | 469 kts | 34° |
| 2026-05-04 15:13 | 42.39078 | 11.91916 | 38136 ft | 467 kts | 34° |
| 2026-05-04 15:13 | 42.43954 | 11.97718 | 38134 ft | 466 kts | 34° |
| 2026-05-04 15:14 | 42.48819 | 12.03519 | 38136 ft | 465 kts | 34° |
| 2026-05-04 15:14 | 42.53671 | 12.09317 | 38127 ft | 464 kts | 34° |
| 2026-05-04 15:15 | 42.58544 | 12.15153 | 38140 ft | 463 kts | 34° |
| 2026-05-04 15:15 | 42.63380 | 12.20956 | 38139 ft | 462 kts | 34° |
| 2026-05-04 15:16 | 42.70584 | 12.29625 | 38148 ft | 463 kts | 35° |
| 2026-05-04 15:17 | 42.77833 | 12.38376 | 38126 ft | 465 kts | 35° |
| 2026-05-04 15:17 | 42.85099 | 12.47177 | 38118 ft | 466 kts | 35° |
| 2026-05-04 15:18 | 42.89948 | 12.53066 | 38113 ft | 466 kts | 35° |
| 2026-05-04 15:19 | 42.97181 | 12.61876 | 38111 ft | 466 kts | 36° |
| 2026-05-04 15:19 | 43.04452 | 12.70760 | 38116 ft | 467 kts | 36° |
| 2026-05-04 15:20 | 43.09297 | 12.76698 | 38100 ft | 467 kts | 36° |
| 2026-05-04 15:20 | 43.13318 | 12.81635 | 38114 ft | 467 kts | 36° |
| 2026-05-04 15:21 | 43.18154 | 12.87586 | 38118 ft | 466 kts | 36° |
| 2026-05-04 15:22 | 43.25355 | 12.96473 | 38115 ft | 461 kts | 37° |
| 2026-05-04 15:22 | 43.32481 | 13.05293 | 38108 ft | 461 kts | 37° |
| 2026-05-04 15:23 | 43.37248 | 13.11210 | 38097 ft | 461 kts | 37° |
| 2026-05-04 15:23 | 43.42006 | 13.17127 | 38081 ft | 461 kts | 37° |
| 2026-05-04 15:24 | 43.51524 | 13.29006 | 38078 ft | 462 kts | 38° |
| 2026-05-04 15:25 | 43.56249 | 13.34924 | 38076 ft | 462 kts | 38° |
| 2026-05-04 15:26 | 43.63384 | 13.43884 | 38079 ft | 463 kts | 38° |
| 2026-05-04 15:26 | 43.70532 | 13.52891 | 38079 ft | 462 kts | 38° |
| 2026-05-04 15:27 | 43.77642 | 13.61881 | 38078 ft | 462 kts | 38° |
| 2026-05-04 15:28 | 43.84740 | 13.70885 | 38071 ft | 462 kts | 38° |
| 2026-05-04 15:29 | 43.91844 | 13.79928 | 38089 ft | 461 kts | 39° |
| 2026-05-04 15:30 | 44.08293 | 14.01038 | 38080 ft | 460 kts | 39° |
| 2026-05-04 15:31 | 44.15309 | 14.10150 | 38080 ft | 459 kts | 39° |
| 2026-05-04 15:32 | 44.26975 | 14.25360 | 38086 ft | 458 kts | 39° |
| 2026-05-04 15:34 | 44.38577 | 14.40568 | 38096 ft | 458 kts | 40° |
| 2026-05-04 15:34 | 44.45543 | 14.49742 | 38098 ft | 458 kts | 40° |
| 2026-05-04 15:35 | 44.52507 | 14.58944 | 38112 ft | 458 kts | 40° |
| 2026-05-04 15:36 | 44.59465 | 14.68170 | 38114 ft | 458 kts | 40° |
| 2026-05-04 15:36 | 44.64093 | 14.74325 | 38111 ft | 458 kts | 40° |
| 2026-05-04 15:37 | 44.68725 | 14.80499 | 38112 ft | 458 kts | 40° |
| 2026-05-04 15:37 | 44.73352 | 14.86680 | 38112 ft | 458 kts | 41° |
| 2026-05-04 15:38 | 44.77952 | 14.92840 | 38121 ft | 458 kts | 41° |
| 2026-05-04 15:38 | 44.82578 | 14.99049 | 38113 ft | 459 kts | 41° |
| 2026-05-04 15:39 | 44.87168 | 15.05225 | 38109 ft | 458 kts | 41° |
| 2026-05-04 15:40 | 44.94053 | 15.14515 | 38096 ft | 456 kts | 41° |
| 2026-05-04 15:40 | 44.98631 | 15.20710 | 38099 ft | 455 kts | 41° |
| 2026-05-04 15:41 | 45.03206 | 15.26915 | 38086 ft | 455 kts | 41° |
| 2026-05-04 15:41 | 45.07776 | 15.33128 | 38068 ft | 455 kts | 41° |
| 2026-05-04 15:42 | 45.12320 | 15.39321 | 38067 ft | 454 kts | 41° |
| 2026-05-04 15:42 | 45.16869 | 15.45534 | 38051 ft | 454 kts | 41° |
| 2026-05-04 15:43 | 45.21419 | 15.51764 | 38053 ft | 454 kts | 41° |
| 2026-05-04 15:43 | 45.25977 | 15.58018 | 38052 ft | 454 kts | 41° |
| 2026-05-04 15:44 | 45.30536 | 15.64288 | 38040 ft | 455 kts | 41° |
| 2026-05-04 15:44 | 45.35059 | 15.70524 | 38043 ft | 455 kts | 41° |
| 2026-05-04 15:45 | 45.39618 | 15.76825 | 38042 ft | 455 kts | 42° |
| 2026-05-04 15:45 | 45.44138 | 15.83087 | 38034 ft | 456 kts | 42° |
| 2026-05-04 15:46 | 45.48689 | 15.89406 | 38032 ft | 456 kts | 42° |
| 2026-05-04 15:46 | 45.53233 | 15.95731 | 38025 ft | 456 kts | 42° |
| 2026-05-04 15:47 | 45.57768 | 16.02058 | 38023 ft | 456 kts | 42° |
| 2026-05-04 15:47 | 45.62309 | 16.08409 | 38016 ft | 456 kts | 42° |
| 2026-05-04 15:48 | 45.66812 | 16.14722 | 38029 ft | 455 kts | 42° |
| 2026-05-04 15:48 | 45.73582 | 16.24243 | 38025 ft | 454 kts | 42° |
| 2026-05-04 15:49 | 45.78083 | 16.30590 | 38021 ft | 453 kts | 43° |
| 2026-05-04 15:49 | 45.82545 | 16.36897 | 38017 ft | 452 kts | 43° |
| 2026-05-04 15:50 | 45.87016 | 16.43234 | 38023 ft | 450 kts | 43° |
| 2026-05-04 15:50 | 45.91445 | 16.49594 | 37978 ft | 451 kts | 46° |
| 2026-05-04 15:51 | 45.93492 | 16.53104 | 37427 ft | 459 kts | 50° |
| 2026-05-04 15:51 | 45.95438 | 16.56740 | 36953 ft | 457 kts | 51° |
| 2026-05-04 15:51 | 45.97344 | 16.60399 | 36470 ft | 453 kts | 51° |
| 2026-05-04 15:51 | 45.99219 | 16.64008 | 36007 ft | 449 kts | 51° |
| 2026-05-04 15:52 | 46.01102 | 16.67603 | 35560 ft | 448 kts | 51° |
| 2026-05-04 15:52 | 46.02961 | 16.71119 | 35125 ft | 447 kts | 50° |
| 2026-05-04 15:52 | 46.04854 | 16.74673 | 34685 ft | 446 kts | 50° |
| 2026-05-04 15:52 | 46.06749 | 16.78217 | 34258 ft | 446 kts | 50° |
| 2026-05-04 15:53 | 46.08651 | 16.81769 | 33813 ft | 449 kts | 50° |
| 2026-05-04 15:53 | 46.10581 | 16.85371 | 33333 ft | 455 kts | 50° |
| 2026-05-04 15:53 | 46.12521 | 16.88997 | 32858 ft | 457 kts | 50° |
| 2026-05-04 15:53 | 46.14457 | 16.92622 | 32388 ft | 457 kts | 50° |
| 2026-05-04 15:54 | 46.16377 | 16.96224 | 31928 ft | 456 kts | 50° |
| 2026-05-04 15:54 | 46.18308 | 16.99854 | 31470 ft | 454 kts | 51° |
| 2026-05-04 15:54 | 46.20230 | 17.03470 | 31023 ft | 454 kts | 51° |
| 2026-05-04 15:54 | 46.22162 | 17.07109 | 30587 ft | 455 kts | 51° |
| 2026-05-04 15:55 | 46.24089 | 17.10744 | 30157 ft | 455 kts | 51° |
| 2026-05-04 15:55 | 46.26015 | 17.14383 | 29661 ft | 456 kts | 51° |
| 2026-05-04 15:55 | 46.27947 | 17.18037 | 29160 ft | 456 kts | 51° |
| 2026-05-04 15:55 | 46.29874 | 17.21686 | 28670 ft | 456 kts | 51° |
| 2026-05-04 15:56 | 46.31797 | 17.25331 | 28189 ft | 456 kts | 51° |
| 2026-05-04 15:56 | 46.33709 | 17.28964 | 27691 ft | 449 kts | 51° |
| 2026-05-04 15:56 | 46.35566 | 17.32495 | 27228 ft | 442 kts | 51° |
| 2026-05-04 15:56 | 46.37419 | 17.36024 | 26766 ft | 436 kts | 51° |
| 2026-05-04 15:57 | 46.39245 | 17.39505 | 26307 ft | 431 kts | 51° |
| 2026-05-04 15:57 | 46.41048 | 17.42946 | 25861 ft | 426 kts | 51° |
| 2026-05-04 15:57 | 46.42826 | 17.46343 | 25418 ft | 421 kts | 51° |
| 2026-05-04 15:57 | 46.44594 | 17.49724 | 24986 ft | 417 kts | 51° |
| 2026-05-04 15:58 | 46.46338 | 17.53065 | 24553 ft | 413 kts | 52° |
| 2026-05-04 15:58 | 46.48064 | 17.56374 | 24138 ft | 409 kts | 52° |
| 2026-05-04 15:58 | 46.49770 | 17.59648 | 23725 ft | 406 kts | 52° |
| 2026-05-04 15:58 | 46.51469 | 17.62914 | 23255 ft | 403 kts | 52° |
| 2026-05-04 15:59 | 46.53154 | 17.66156 | 22772 ft | 400 kts | 52° |
| 2026-05-04 15:59 | 46.54260 | 17.68285 | 22443 ft | 398 kts | 52° |
| 2026-05-04 15:59 | 46.55926 | 17.71498 | 21970 ft | 396 kts | 52° |
| 2026-05-04 15:59 | 46.57581 | 17.74692 | 21508 ft | 394 kts | 52° |
| 2026-05-04 16:00 | 46.59222 | 17.77863 | 21070 ft | 391 kts | 52° |
| 2026-05-04 16:00 | 46.60855 | 17.81021 | 20681 ft | 388 kts | 52° |
| 2026-05-04 16:00 | 46.62474 | 17.84158 | 20282 ft | 385 kts | 52° |
| 2026-05-04 16:00 | 46.64077 | 17.87266 | 19892 ft | 383 kts | 53° |
| 2026-05-04 16:01 | 46.65672 | 17.90362 | 19504 ft | 381 kts | 53° |
| 2026-05-04 16:01 | 46.67238 | 17.93405 | 19122 ft | 379 kts | 53° |
| 2026-05-04 16:01 | 46.68809 | 17.96461 | 18736 ft | 377 kts | 53° |
| 2026-05-04 16:01 | 46.70376 | 17.99513 | 18362 ft | 375 kts | 53° |
| 2026-05-04 16:02 | 46.71935 | 18.02553 | 17969 ft | 374 kts | 53° |
| 2026-05-04 16:02 | 46.73486 | 18.05580 | 17609 ft | 372 kts | 53° |
| 2026-05-04 16:02 | 46.76571 | 18.11612 | 16882 ft | 369 kts | 53° |
| 2026-05-04 16:03 | 46.78098 | 18.14601 | 16602 ft | 365 kts | 53° |
| 2026-05-04 16:03 | 46.79603 | 18.17551 | 16339 ft | 358 kts | 53° |
| 2026-05-04 16:03 | 46.81080 | 18.20450 | 16072 ft | 351 kts | 53° |
| 2026-05-04 16:03 | 46.82525 | 18.23288 | 15822 ft | 346 kts | 53° |
| 2026-05-04 16:04 | 46.83958 | 18.26106 | 15577 ft | 343 kts | 54° |
| 2026-05-04 16:04 | 46.86782 | 18.31669 | 15079 ft | 338 kts | 54° |
| 2026-05-04 16:04 | 46.88178 | 18.34423 | 14836 ft | 336 kts | 54° |
| 2026-05-04 16:05 | 46.89563 | 18.37158 | 14592 ft | 333 kts | 54° |
| 2026-05-04 16:05 | 46.90925 | 18.39848 | 14362 ft | 332 kts | 54° |
| 2026-05-04 16:05 | 46.93657 | 18.45257 | 13889 ft | 328 kts | 54° |
| 2026-05-04 16:06 | 46.95089 | 18.47856 | 13605 ft | 328 kts | 44° |
| 2026-05-04 16:06 | 47.00421 | 18.51928 | 12930 ft | 324 kts | 24° |
| 2026-05-04 16:07 | 47.03161 | 18.53702 | 12571 ft | 318 kts | 24° |
| 2026-05-04 16:07 | 47.09063 | 18.57631 | 11781 ft | 307 kts | 25° |
| 2026-05-04 16:08 | 47.11023 | 18.58955 | 11478 ft | 305 kts | 25° |
| 2026-05-04 16:08 | 47.16731 | 18.62832 | 10586 ft | 301 kts | 25° |
| 2026-05-04 16:09 | 47.20530 | 18.65424 | 9925 ft | 301 kts | 25° |
| 2026-05-04 16:09 | 47.24340 | 18.68028 | 9203 ft | 301 kts | 25° |
| 2026-05-04 16:10 | 47.28143 | 18.70632 | 8490 ft | 302 kts | 24° |
| 2026-05-04 16:11 | 47.33865 | 18.74557 | 7448 ft | 301 kts | 25° |
| 2026-05-04 16:11 | 47.35762 | 18.75861 | 7117 ft | 301 kts | 24° |
| 2026-05-04 16:12 | 47.41429 | 18.79761 | 6107 ft | 300 kts | 25° |
| 2026-05-04 16:12 | 47.47071 | 18.83656 | 5182 ft | 296 kts | 26° |
| 2026-05-04 16:13 | 47.50709 | 18.86168 | 4575 ft | 282 kts | 26° |
| 2026-05-04 16:13 | 47.54158 | 18.88554 | 4093 ft | 260 kts | 27° |
| 2026-05-04 16:14 | 47.56700 | 18.91684 | 3979 ft | 223 kts | 47° |
| 2026-05-04 16:14 | 47.58883 | 18.94865 | 3966 ft | 214 kts | 54° |
| 2026-05-04 16:15 | 47.58063 | 19.00130 | 3997 ft | 186 kts | 128° |
| 2026-05-04 16:16 | 47.56486 | 19.03215 | 3767 ft | 191 kts | 134° |
| 2026-05-04 16:16 | 47.53880 | 19.07487 | 3040 ft | 179 kts | 135° |
| 2026-05-04 16:17 | 47.52260 | 19.10105 | 2603 ft | 166 kts | 136° |
| 2026-05-04 16:18 | 47.50062 | 19.13658 | 2001 ft | 152 kts | 135° |
| 2026-05-04 16:18 | 47.49351 | 19.14806 | 1799 ft | 149 kts | 135° |
| 2026-05-04 16:19 | 47.47289 | 19.18164 | 1170 ft | 140 kts | 135° |
| 2026-05-04 16:19 | 47.45991 | 19.20250 | 752 ft | 136 kts | 138° |
| 2026-05-04 16:20 | 47.44090 | 19.23355 | 472 ft | 127 kts | 136° |
| 2026-05-04 16:20 | 47.43167 | 19.24823 | 456 ft | 47 kts | 133° |
| 2026-05-04 16:21 | 47.43195 | 19.25189 | 456 ft | 8 kts | 41° |
| 2026-05-04 16:22 | 47.43280 | 19.25300 | 456 ft | 8 kts | 43° |
| 2026-05-04 16:22 | 47.43453 | 19.25533 | 456 ft | 13 kts | 43° |
| 2026-05-04 16:23 | 47.43645 | 19.25791 | 456 ft | 12 kts | 42° |
| 2026-05-04 16:24 | 47.43626 | 19.26148 | 456 ft | 11 kts | 133° |
| 2026-05-04 16:25 | 47.43507 | 19.26090 | 456 ft | 10 kts | 223° |
| 2026-05-04 16:26 | 47.43414 | 19.26131 | 456 ft | 0 kts | 132° |